EST,Max TemperatureF,Mean TemperatureF,Min TemperatureF,Max Dew PointF,MeanDew PointF,Min DewpointF,Max Humidity, Mean Humidity, Min Humidity, Max Sea Level PressureIn, Mean Sea Level PressureIn, Min Sea Level PressureIn, Max VisibilityMiles, Mean VisibilityMiles, Min VisibilityMiles, Max Wind SpeedMPH, Mean Wind SpeedMPH, Max Gust SpeedMPH,PrecipitationIn, CloudCover, Events, WindDirDegrees
2012-11-1,48,43,37,35,29,24,79,61,42,29.86,29.79,29.73,10,10,10,21,12,26,0.00,7,,306
2012-11-2,43,38,32,31,28,26,82,68,53,30.14,29.99,29.86,10,10,10,18,9,24,0.00,6,,325
2012-11-3,37,32,26,29,26,23,92,78,64,30.24,30.20,30.12,10,10,10,12,3,14,0.00,5,,2
2012-11-4,38,31,24,28,25,20,85,72,59,30.24,30.21,30.17,10,10,10,8,3,13,0.00,5,,17
2012-11-5,42,32,21,27,23,17,88,70,51,30.26,30.21,30.16,10,9,5,9,2,13,0.00,2,,83
2012-11-6,44,33,22,28,25,19,88,71,53,30.17,30.05,29.97,10,10,6,15,7,21,0.00,4,,146
2012-11-7,48,40,31,29,27,24,78,59,39,30.18,30.07,29.98,10,10,8,10,5,14,0.00,2,,45
2012-11-8,48,37,26,33,29,23,92,71,49,30.24,30.18,30.13,10,8,3,12,4,14,0.00,4,,214
2012-11-9,56,43,29,42,35,27,92,72,51,30.19,30.13,30.07,10,7,2,14,5,18,T,3,,167
2012-11-10,65,58,51,48,44,41,71,60,48,30.10,30.04,29.92,10,10,9,26,12,33,T,5,,168
2012-11-11,69,62,55,48,44,39,62,53,43,30.07,29.98,29.89,10,10,10,30,20,41,T,2,Rain,189
2012-11-12,61,47,33,52,35,21,89,72,54,30.29,30.03,29.88,10,9,3,28,16,36,0.33,8,Rain-Snow,251
2012-11-13,35,31,26,21,19,18,75,65,54,30.55,30.45,30.26,10,10,10,17,5,24,0.00,6,,266
2012-11-14,40,32,23,25,21,18,75,62,48,30.60,30.53,30.45,10,10,9,10,4,13,0.00,0,,155
2012-11-15,45,34,22,29,25,20,88,73,57,30.45,30.41,30.36,10,8,4,8,1,10,0.00,0,,200
2012-11-16,52,38,24,35,27,21,88,65,41,30.52,30.47,30.40,10,8,3,8,1,10,0.00,0,,213
2012-11-17,53,39,25,32,27,22,92,65,38,30.61,30.56,30.53,10,8,4,13,3,15,0.00,0,,145
2012-11-18,55,43,30,35,30,27,92,64,35,30.53,30.48,30.41,10,6,0,10,4,13,0.00,1,Fog,130
2012-11-19,56,44,32,32,30,28,82,60,38,30.40,30.31,30.18,10,10,7,9,4,13,0.00,0,,164
2012-11-20,53,45,36,43,37,33,96,77,58,30.18,30.14,30.08,10,6,0,8,2,9,0.01,6,Fog-Rain,167
2012-11-21,53,42,31,44,37,30,100,86,71,30.27,30.20,30.15,10,2,0,12,4,15,0.00,0,Fog,201
2012-11-22,60,50,40,45,41,38,96,72,47,30.15,30.01,29.77,10,6,2,25,15,35,0.02,2,Rain,199
2012-11-23,54,42,30,47,28,21,85,74,63,30.10,29.90,29.75,10,7,0,30,18,37,0.01,8,Fog-Snow,279
2012-11-24,31,29,27,22,20,18,75,69,63,30.18,30.12,30.04,10,10,9,20,10,26,T,8,Snow,290
2012-11-25,37,32,27,27,24,19,85,75,64,30.04,29.93,29.86,10,10,10,15,8,20,T,7,,228
2012-11-26,34,31,28,27,23,18,85,71,56,30.33,30.17,30.02,10,10,8,13,4,16,0.00,8,,327
2012-11-27,36,29,21,18,16,13,77,62,47,30.39,30.33,30.26,10,10,10,14,4,17,0.00,2,,286
2012-11-28,41,33,25,25,20,14,81,61,40,30.34,30.30,30.23,10,10,10,18,9,22,0.00,5,,242
2012-11-29,48,38,27,29,25,20,72,57,42,30.31,30.25,30.19,10,10,8,18,9,22,0.00,1,,202
2012-11-30,43,40,36,33,30,28,82,71,60,30.23,30.17,30.13,10,9,5,12,6,14,T,7,,84